sensor_id;sensor_type;location;lat;lon;timestamp;P1;durP1;ratioP1;P2;durP2;ratioP2
16330;SDS011;8275;48.206;16.340;2024-03-23T00:55:47;8.75;;;7.78;;
16330;SDS011;8275;48.206;16.340;2024-03-23T00:58:14;9.60;;;7.20;;
16330;SDS011;8275;48.206;16.340;2024-03-23T01:00:40;14.55;;;6.97;;
16330;SDS011;8275;48.206;16.340;2024-03-23T01:03:08;12.48;;;9.30;;
16330;SDS011;8275;48.206;16.340;2024-03-23T01:05:34;11.68;;;10.25;;
16330;SDS011;8275;48.206;16.340;2024-03-23T01:08:02;11.02;;;9.10;;
16330;SDS011;8275;48.206;16.340;2024-03-23T01:10:30;10.30;;;9.30;;
16330;SDS011;8275;48.206;16.340;2024-03-23T01:12:57;13.82;;;12.35;;
16330;SDS011;8275;48.206;16.340;2024-03-23T01:15:24;9.95;;;8.85;;
16330;SDS011;8275;48.206;16.340;2024-03-23T01:17:51;9.43;;;7.97;;
16330;SDS011;8275;48.206;16.340;2024-03-23T01:20:17;8.98;;;6.50;;
16330;SDS011;8275;48.206;16.340;2024-03-23T01:22:45;9.80;;;8.15;;
16330;SDS011;8275;48.206;16.340;2024-03-23T01:25:11;8.20;;;6.45;;
16330;SDS011;8275;48.206;16.340;2024-03-23T01:27:40;11.85;;;7.43;;
16330;SDS011;8275;48.206;16.340;2024-03-23T01:30:07;7.65;;;6.72;;
16330;SDS011;8275;48.206;16.340;2024-03-23T01:32:35;9.25;;;6.80;;
16330;SDS011;8275;48.206;16.340;2024-03-23T01:35:01;8.10;;;7.30;;
16330;SDS011;8275;48.206;16.340;2024-03-23T01:37:29;6.10;;;5.50;;
16330;SDS011;8275;48.206;16.340;2024-03-23T01:39:55;10.20;;;5.82;;
16330;SDS011;8275;48.206;16.340;2024-03-23T01:42:23;8.50;;;5.68;;
16330;SDS011;8275;48.206;16.340;2024-03-23T01:44:50;6.30;;;5.70;;
16330;SDS011;8275;48.206;16.340;2024-03-23T01:47:18;6.38;;;5.40;;
16330;SDS011;8275;48.206;16.340;2024-03-23T01:49:44;6.55;;;5.82;;
16330;SDS011;8275;48.206;16.340;2024-03-23T01:52:12;7.03;;;6.32;;
16330;SDS011;8275;48.206;16.340;2024-03-23T01:54:38;5.43;;;4.93;;
16330;SDS011;8275;48.206;16.340;2024-03-23T01:57:06;6.30;;;5.80;;
16330;SDS011;8275;48.206;16.340;2024-03-23T01:59:33;6.78;;;6.18;;
16330;SDS011;8275;48.206;16.340;2024-03-23T02:02:02;6.13;;;5.50;;
16330;SDS011;8275;48.206;16.340;2024-03-23T02:04:28;5.80;;;5.28;;
16330;SDS011;8275;48.206;16.340;2024-03-23T02:06:56;7.13;;;6.45;;
16330;SDS011;8275;48.206;16.340;2024-03-23T02:09:22;6.82;;;6.13;;
16330;SDS011;8275;48.206;16.340;2024-03-23T02:11:50;6.88;;;6.25;;
16330;SDS011;8275;48.206;16.340;2024-03-23T02:14:17;6.47;;;5.80;;
16330;SDS011;8275;48.206;16.340;2024-03-23T02:16:44;8.48;;;7.63;;
16330;SDS011;8275;48.206;16.340;2024-03-23T02:19:13;7.82;;;7.05;;
16330;SDS011;8275;48.206;16.340;2024-03-23T02:21:41;8.07;;;7.28;;
16330;SDS011;8275;48.206;16.340;2024-03-23T02:24:08;13.82;;;7.50;;
16330;SDS011;8275;48.206;16.340;2024-03-23T02:26:36;11.73;;;9.15;;
16330;SDS011;8275;48.206;16.340;2024-03-23T02:29:02;9.63;;;8.35;;
16330;SDS011;8275;48.206;16.340;2024-03-23T02:31:30;14.25;;;8.50;;
16330;SDS011;8275;48.206;16.340;2024-03-23T02:33:56;8.80;;;7.90;;
16330;SDS011;8275;48.206;16.340;2024-03-23T02:36:24;10.85;;;7.80;;
16330;SDS011;8275;48.206;16.340;2024-03-23T02:38:50;9.95;;;9.05;;
16330;SDS011;8275;48.206;16.340;2024-03-23T02:41:19;8.52;;;7.72;;
16330;SDS011;8275;48.206;16.340;2024-03-23T02:43:48;8.43;;;6.97;;
16330;SDS011;8275;48.206;16.340;2024-03-23T02:46:16;8.35;;;7.47;;
16330;SDS011;8275;48.206;16.340;2024-03-23T02:48:42;11.15;;;6.93;;
16330;SDS011;8275;48.206;16.340;2024-03-23T02:51:10;7.85;;;7.15;;
16330;SDS011;8275;48.206;16.340;2024-03-23T02:53:36;7.75;;;7.05;;
16330;SDS011;8275;48.206;16.340;2024-03-23T02:56:04;11.80;;;8.93;;
16330;SDS011;8275;48.206;16.340;2024-03-23T02:58:33;8.18;;;7.35;;
16330;SDS011;8275;48.206;16.340;2024-03-23T03:01:00;8.30;;;7.50;;
16330;SDS011;8275;48.206;16.340;2024-03-23T03:03:27;8.40;;;7.60;;
16330;SDS011;8275;48.206;16.340;2024-03-23T03:05:55;7.95;;;7.25;;
16330;SDS011;8275;48.206;16.340;2024-03-23T03:08:21;8.63;;;6.88;;
16330;SDS011;8275;48.206;16.340;2024-03-23T03:10:49;7.75;;;7.05;;
16330;SDS011;8275;48.206;16.340;2024-03-23T03:13:15;8.38;;;7.03;;
16330;SDS011;8275;48.206;16.340;2024-03-23T03:15:44;7.95;;;7.18;;
16330;SDS011;8275;48.206;16.340;2024-03-23T03:18:11;9.65;;;8.00;;
16330;SDS011;8275;48.206;16.340;2024-03-23T03:20:38;9.30;;;7.43;;
16330;SDS011;8275;48.206;16.340;2024-03-23T03:23:04;7.93;;;7.15;;
16330;SDS011;8275;48.206;16.340;2024-03-23T03:25:32;9.55;;;7.68;;
16330;SDS011;8275;48.206;16.340;2024-03-23T03:27:58;10.57;;;7.50;;
16330;SDS011;8275;48.206;16.340;2024-03-23T03:30:27;8.25;;;7.05;;
16330;SDS011;8275;48.206;16.340;2024-03-23T03:32:54;15.38;;;6.80;;
16330;SDS011;8275;48.206;16.340;2024-03-23T03:35:22;7.05;;;6.13;;
16330;SDS011;8275;48.206;16.340;2024-03-23T03:37:48;7.50;;;6.63;;
16330;SDS011;8275;48.206;16.340;2024-03-23T03:40:16;9.98;;;8.65;;
16330;SDS011;8275;48.206;16.340;2024-03-23T03:42:42;9.18;;;7.72;;
16330;SDS011;8275;48.206;16.340;2024-03-23T03:45:10;7.72;;;7.03;;
16330;SDS011;8275;48.206;16.340;2024-03-23T03:47:36;7.47;;;6.78;;
16330;SDS011;8275;48.206;16.340;2024-03-23T03:50:05;7.18;;;5.82;;
16330;SDS011;8275;48.206;16.340;2024-03-23T03:52:32;7.55;;;5.90;;
16330;SDS011;8275;48.206;16.340;2024-03-23T03:55:01;5.40;;;4.90;;
16330;SDS011;8275;48.206;16.340;2024-03-23T03:57:28;7.35;;;6.65;;
16330;SDS011;8275;48.206;16.340;2024-03-23T03:59:56;8.20;;;6.32;;
16330;SDS011;8275;48.206;16.340;2024-03-23T04:02:22;7.55;;;6.85;;
16330;SDS011;8275;48.206;16.340;2024-03-23T04:04:49;9.38;;;7.20;;
16330;SDS011;8275;48.206;16.340;2024-03-23T04:07:17;11.73;;;6.00;;
16330;SDS011;8275;48.206;16.340;2024-03-23T04:09:45;7.65;;;6.30;;
16330;SDS011;8275;48.206;16.340;2024-03-23T04:12:12;6.65;;;6.03;;
16330;SDS011;8275;48.206;16.340;2024-03-23T04:14:39;8.27;;;6.70;;
16330;SDS011;8275;48.206;16.340;2024-03-23T04:17:06;6.47;;;5.88;;
16330;SDS011;8275;48.206;16.340;2024-03-23T04:19:33;5.50;;;5.10;;
16330;SDS011;8275;48.206;16.340;2024-03-23T04:22:00;6.53;;;5.75;;
16330;SDS011;8275;48.206;16.340;2024-03-23T04:24:28;8.70;;;6.15;;
16330;SDS011;8275;48.206;16.340;2024-03-23T04:26:55;6.45;;;5.47;;
16330;SDS011;8275;48.206;16.340;2024-03-23T04:29:23;7.05;;;6.35;;
16330;SDS011;8275;48.206;16.340;2024-03-23T04:31:49;6.18;;;5.57;;
16330;SDS011;8275;48.206;16.340;2024-03-23T04:34:16;6.47;;;5.97;;
16330;SDS011;8275;48.206;16.340;2024-03-23T04:36:43;7.20;;;6.38;;
16330;SDS011;8275;48.206;16.340;2024-03-23T04:39:10;6.60;;;5.30;;
16330;SDS011;8275;48.206;16.340;2024-03-23T04:41:39;5.97;;;5.45;;
16330;SDS011;8275;48.206;16.340;2024-03-23T04:44:06;10.77;;;5.35;;
16330;SDS011;8275;48.206;16.340;2024-03-23T04:46:34;5.97;;;5.47;;
16330;SDS011;8275;48.206;16.340;2024-03-23T04:49:01;5.82;;;5.20;;
16330;SDS011;8275;48.206;16.340;2024-03-23T04:51:34;6.45;;;5.78;;
16330;SDS011;8275;48.206;16.340;2024-03-23T04:54:03;11.57;;;7.35;;
16330;SDS011;8275;48.206;16.340;2024-03-23T04:56:31;7.07;;;6.05;;
16330;SDS011;8275;48.206;16.340;2024-03-23T04:58:59;7.00;;;6.30;;
16330;SDS011;8275;48.206;16.340;2024-03-23T05:01:29;8.90;;;6.28;;
16330;SDS011;8275;48.206;16.340;2024-03-23T05:03:56;6.50;;;5.90;;
16330;SDS011;8275;48.206;16.340;2024-03-23T05:06:23;6.55;;;5.90;;
16330;SDS011;8275;48.206;16.340;2024-03-23T05:08:50;9.85;;;6.63;;
16330;SDS011;8275;48.206;16.340;2024-03-23T05:11:18;5.95;;;5.35;;
16330;SDS011;8275;48.206;16.340;2024-03-23T05:13:46;6.03;;;5.47;;
16330;SDS011;8275;48.206;16.340;2024-03-23T05:16:14;6.05;;;5.55;;
16330;SDS011;8275;48.206;16.340;2024-03-23T05:18:41;6.95;;;6.35;;
16330;SDS011;8275;48.206;16.340;2024-03-23T05:21:08;8.05;;;5.60;;
16330;SDS011;8275;48.206;16.340;2024-03-23T05:23:35;6.55;;;5.57;;
16330;SDS011;8275;48.206;16.340;2024-03-23T05:26:03;7.82;;;5.97;;
16330;SDS011;8275;48.206;16.340;2024-03-23T05:28:30;8.18;;;5.93;;
16330;SDS011;8275;48.206;16.340;2024-03-23T05:30:57;7.38;;;6.78;;
16330;SDS011;8275;48.206;16.340;2024-03-23T05:33:25;6.40;;;5.80;;
16330;SDS011;8275;48.206;16.340;2024-03-23T05:35:55;5.93;;;5.43;;
16330;SDS011;8275;48.206;16.340;2024-03-23T05:38:23;8.82;;;7.40;;
16330;SDS011;8275;48.206;16.340;2024-03-23T05:40:54;7.80;;;6.63;;
16330;SDS011;8275;48.206;16.340;2024-03-23T05:43:21;7.75;;;7.00;;
16330;SDS011;8275;48.206;16.340;2024-03-23T05:45:53;6.97;;;6.25;;
16330;SDS011;8275;48.206;16.340;2024-03-23T05:48:19;6.68;;;5.97;;
16330;SDS011;8275;48.206;16.340;2024-03-23T05:50:48;9.15;;;6.50;;
16330;SDS011;8275;48.206;16.340;2024-03-23T05:53:15;6.82;;;6.25;;
16330;SDS011;8275;48.206;16.340;2024-03-23T05:55:43;5.90;;;5.30;;
16330;SDS011;8275;48.206;16.340;2024-03-23T05:58:10;9.32;;;6.22;;
16330;SDS011;8275;48.206;16.340;2024-03-23T06:00:38;9.38;;;6.78;;
16330;SDS011;8275;48.206;16.340;2024-03-23T06:03:05;7.15;;;5.85;;
16330;SDS011;8275;48.206;16.340;2024-03-23T06:05:32;6.55;;;5.95;;
16330;SDS011;8275;48.206;16.340;2024-03-23T06:08:00;10.73;;;6.15;;
16330;SDS011;8275;48.206;16.340;2024-03-23T06:10:27;7.00;;;6.30;;
16330;SDS011;8275;48.206;16.340;2024-03-23T06:12:54;6.75;;;5.85;;
16330;SDS011;8275;48.206;16.340;2024-03-23T06:15:21;5.93;;;5.32;;
16330;SDS011;8275;48.206;16.340;2024-03-23T06:17:48;6.90;;;6.28;;
16330;SDS011;8275;48.206;16.340;2024-03-23T06:20:15;6.55;;;5.95;;
16330;SDS011;8275;48.206;16.340;2024-03-23T06:22:42;7.93;;;6.03;;
16330;SDS011;8275;48.206;16.340;2024-03-23T06:25:10;6.55;;;5.63;;
16330;SDS011;8275;48.206;16.340;2024-03-23T06:27:37;7.05;;;5.43;;
16330;SDS011;8275;48.206;16.340;2024-03-23T06:30:06;6.25;;;5.40;;
16330;SDS011;8275;48.206;16.340;2024-03-23T06:32:33;5.78;;;5.13;;
16330;SDS011;8275;48.206;16.340;2024-03-23T06:35:00;5.85;;;5.20;;
16330;SDS011;8275;48.206;16.340;2024-03-23T06:37:33;7.90;;;4.75;;
16330;SDS011;8275;48.206;16.340;2024-03-23T06:40:00;5.30;;;4.90;;
16330;SDS011;8275;48.206;16.340;2024-03-23T06:42:28;6.28;;;5.30;;
16330;SDS011;8275;48.206;16.340;2024-03-23T06:44:56;5.53;;;5.03;;
16330;SDS011;8275;48.206;16.340;2024-03-23T06:47:22;7.25;;;5.95;;
16330;SDS011;8275;48.206;16.340;2024-03-23T06:49:50;5.40;;;4.90;;
16330;SDS011;8275;48.206;16.340;2024-03-23T06:52:17;8.45;;;5.35;;
16330;SDS011;8275;48.206;16.340;2024-03-23T06:54:44;6.00;;;5.40;;
16330;SDS011;8275;48.206;16.340;2024-03-23T06:57:11;6.03;;;5.43;;
16330;SDS011;8275;48.206;16.340;2024-03-23T06:59:40;8.65;;;5.93;;
16330;SDS011;8275;48.206;16.340;2024-03-23T07:02:06;10.25;;;5.75;;
16330;SDS011;8275;48.206;16.340;2024-03-23T07:04:34;5.38;;;4.97;;
16330;SDS011;8275;48.206;16.340;2024-03-23T07:07:00;5.45;;;4.95;;
16330;SDS011;8275;48.206;16.340;2024-03-23T07:09:28;5.45;;;4.93;;
16330;SDS011;8275;48.206;16.340;2024-03-23T07:11:55;6.28;;;5.68;;
16330;SDS011;8275;48.206;16.340;2024-03-23T07:14:23;6.90;;;5.00;;
16330;SDS011;8275;48.206;16.340;2024-03-23T07:16:51;6.18;;;5.55;;
16330;SDS011;8275;48.206;16.340;2024-03-23T07:19:19;6.63;;;5.85;;
16330;SDS011;8275;48.206;16.340;2024-03-23T07:21:45;8.05;;;5.70;;
16330;SDS011;8275;48.206;16.340;2024-03-23T07:24:13;7.28;;;5.43;;
16330;SDS011;8275;48.206;16.340;2024-03-23T07:26:40;6.72;;;6.13;;
16330;SDS011;8275;48.206;16.340;2024-03-23T07:29:08;7.28;;;4.97;;
16330;SDS011;8275;48.206;16.340;2024-03-23T07:31:34;5.93;;;5.40;;
16330;SDS011;8275;48.206;16.340;2024-03-23T07:34:03;6.82;;;6.15;;
16330;SDS011;8275;48.206;16.340;2024-03-23T07:36:31;6.95;;;6.00;;
16330;SDS011;8275;48.206;16.340;2024-03-23T07:38:58;6.18;;;5.57;;
16330;SDS011;8275;48.206;16.340;2024-03-23T07:41:25;5.65;;;5.15;;
16330;SDS011;8275;48.206;16.340;2024-03-23T07:43:53;8.40;;;6.88;;
16330;SDS011;8275;48.206;16.340;2024-03-23T07:46:20;7.18;;;5.95;;
16330;SDS011;8275;48.206;16.340;2024-03-23T07:48:47;6.55;;;5.95;;
16330;SDS011;8275;48.206;16.340;2024-03-23T07:51:17;7.20;;;6.43;;
16330;SDS011;8275;48.206;16.340;2024-03-23T07:53:47;6.65;;;6.05;;
16330;SDS011;8275;48.206;16.340;2024-03-23T07:56:14;6.68;;;5.78;;
16330;SDS011;8275;48.206;16.340;2024-03-23T07:58:43;7.82;;;6.20;;
16330;SDS011;8275;48.206;16.340;2024-03-23T08:01:11;6.78;;;6.07;;
16330;SDS011;8275;48.206;16.340;2024-03-23T08:03:40;7.25;;;6.65;;
16330;SDS011;8275;48.206;16.340;2024-03-23T08:06:08;8.75;;;7.05;;
16330;SDS011;8275;48.206;16.340;2024-03-23T08:08:38;11.60;;;8.32;;
16330;SDS011;8275;48.206;16.340;2024-03-23T08:11:06;8.68;;;7.97;;
16330;SDS011;8275;48.206;16.340;2024-03-23T08:13:34;9.80;;;8.90;;
16330;SDS011;8275;48.206;16.340;2024-03-23T08:16:03;13.30;;;8.88;;
16330;SDS011;8275;48.206;16.340;2024-03-23T08:18:31;7.65;;;6.90;;
16330;SDS011;8275;48.206;16.340;2024-03-23T08:20:58;8.65;;;7.53;;
16330;SDS011;8275;48.206;16.340;2024-03-23T08:23:26;8.45;;;7.63;;
16330;SDS011;8275;48.206;16.340;2024-03-23T08:25:58;8.98;;;8.10;;
16330;SDS011;8275;48.206;16.340;2024-03-23T08:28:26;9.55;;;7.43;;
16330;SDS011;8275;48.206;16.340;2024-03-23T08:30:53;9.68;;;7.05;;
16330;SDS011;8275;48.206;16.340;2024-03-23T08:33:22;7.95;;;7.30;;
16330;SDS011;8275;48.206;16.340;2024-03-23T08:35:53;7.30;;;6.65;;
16330;SDS011;8275;48.206;16.340;2024-03-23T08:38:22;9.18;;;8.27;;
16330;SDS011;8275;48.206;16.340;2024-03-23T08:40:56;8.35;;;7.30;;
16330;SDS011;8275;48.206;16.340;2024-03-23T08:43:25;7.90;;;7.10;;
16330;SDS011;8275;48.206;16.340;2024-03-23T08:45:52;9.48;;;6.43;;
16330;SDS011;8275;48.206;16.340;2024-03-23T08:48:20;8.85;;;7.72;;
16330;SDS011;8275;48.206;16.340;2024-03-23T08:50:46;10.32;;;8.23;;
16330;SDS011;8275;48.206;16.340;2024-03-23T08:53:24;8.27;;;7.22;;
16330;SDS011;8275;48.206;16.340;2024-03-23T08:55:53;8.70;;;7.53;;
16330;SDS011;8275;48.206;16.340;2024-03-23T08:58:23;7.68;;;6.47;;
16330;SDS011;8275;48.206;16.340;2024-03-23T09:00:50;6.85;;;5.88;;
16330;SDS011;8275;48.206;16.340;2024-03-23T09:03:18;6.53;;;5.55;;
16330;SDS011;8275;48.206;16.340;2024-03-23T09:05:45;5.25;;;4.75;;
16330;SDS011;8275;48.206;16.340;2024-03-23T09:08:12;7.53;;;5.70;;
16330;SDS011;8275;48.206;16.340;2024-03-23T09:10:39;6.18;;;5.32;;
16330;SDS011;8275;48.206;16.340;2024-03-23T09:13:07;5.28;;;4.78;;
16330;SDS011;8275;48.206;16.340;2024-03-23T09:15:35;4.72;;;4.22;;
16330;SDS011;8275;48.206;16.340;2024-03-23T09:18:13;4.32;;;3.92;;
16330;SDS011;8275;48.206;16.340;2024-03-23T09:20:39;4.13;;;3.83;;
16330;SDS011;8275;48.206;16.340;2024-03-23T09:23:07;4.32;;;3.92;;
16330;SDS011;8275;48.206;16.340;2024-03-23T09:25:35;5.10;;;3.58;;
16330;SDS011;8275;48.206;16.340;2024-03-23T09:28:04;4.55;;;4.15;;
16330;SDS011;8275;48.206;16.340;2024-03-23T09:30:35;4.10;;;3.67;;
16330;SDS011;8275;48.206;16.340;2024-03-23T09:33:07;4.53;;;4.13;;
16330;SDS011;8275;48.206;16.340;2024-03-23T09:35:36;4.60;;;4.20;;
16330;SDS011;8275;48.206;16.340;2024-03-23T09:38:04;3.38;;;2.95;;
16330;SDS011;8275;48.206;16.340;2024-03-23T09:40:31;3.40;;;3.10;;
16330;SDS011;8275;48.206;16.340;2024-03-23T09:42:58;8.25;;;3.00;;
16330;SDS011;8275;48.206;16.340;2024-03-23T09:45:26;2.60;;;2.40;;
16330;SDS011;8275;48.206;16.340;2024-03-23T09:47:56;4.70;;;2.78;;
16330;SDS011;8275;48.206;16.340;2024-03-23T09:50:23;4.25;;;3.22;;
16330;SDS011;8275;48.206;16.340;2024-03-23T09:52:51;2.70;;;2.50;;
16330;SDS011;8275;48.206;16.340;2024-03-23T09:55:17;2.72;;;2.50;;
16330;SDS011;8275;48.206;16.340;2024-03-23T09:57:45;4.00;;;2.78;;
16330;SDS011;8275;48.206;16.340;2024-03-23T10:00:12;2.50;;;2.30;;
16330;SDS011;8275;48.206;16.340;2024-03-23T10:02:40;2.97;;;2.78;;
16330;SDS011;8275;48.206;16.340;2024-03-23T10:05:19;3.00;;;2.70;;
16330;SDS011;8275;48.206;16.340;2024-03-23T10:07:48;2.00;;;1.90;;
16330;SDS011;8275;48.206;16.340;2024-03-23T10:10:15;2.33;;;2.05;;
16330;SDS011;8275;48.206;16.340;2024-03-23T10:12:44;2.67;;;2.45;;
16330;SDS011;8275;48.206;16.340;2024-03-23T10:15:17;2.75;;;2.55;;
16330;SDS011;8275;48.206;16.340;2024-03-23T10:17:46;2.63;;;2.40;;
16330;SDS011;8275;48.206;16.340;2024-03-23T10:20:12;2.58;;;2.38;;
16330;SDS011;8275;48.206;16.340;2024-03-23T10:22:46;2.58;;;2.38;;
16330;SDS011;8275;48.206;16.340;2024-03-23T10:25:13;2.50;;;2.25;;
16330;SDS011;8275;48.206;16.340;2024-03-23T10:27:41;2.75;;;2.55;;
16330;SDS011;8275;48.206;16.340;2024-03-23T10:30:09;2.85;;;2.45;;
16330;SDS011;8275;48.206;16.340;2024-03-23T10:32:38;2.70;;;2.50;;
16330;SDS011;8275;48.206;16.340;2024-03-23T10:35:14;3.80;;;2.55;;
16330;SDS011;8275;48.206;16.340;2024-03-23T10:37:44;2.67;;;2.30;;
16330;SDS011;8275;48.206;16.340;2024-03-23T10:40:13;2.13;;;1.95;;
16330;SDS011;8275;48.206;16.340;2024-03-23T10:42:40;3.85;;;2.45;;
16330;SDS011;8275;48.206;16.340;2024-03-23T10:45:08;2.75;;;2.50;;
16330;SDS011;8275;48.206;16.340;2024-03-23T10:47:36;3.95;;;2.20;;
16330;SDS011;8275;48.206;16.340;2024-03-23T10:50:03;2.10;;;2.00;;
16330;SDS011;8275;48.206;16.340;2024-03-23T10:52:32;4.30;;;2.28;;
16330;SDS011;8275;48.206;16.340;2024-03-23T10:55:01;2.30;;;2.10;;
16330;SDS011;8275;48.206;16.340;2024-03-23T10:57:36;5.70;;;1.85;;
16330;SDS011;8275;48.206;16.340;2024-03-23T11:00:07;4.55;;;2.25;;
16330;SDS011;8275;48.206;16.340;2024-03-23T11:02:37;3.40;;;2.35;;
16330;SDS011;8275;48.206;16.340;2024-03-23T11:05:12;1.52;;;1.42;;
16330;SDS011;8275;48.206;16.340;2024-03-23T11:07:55;5.32;;;2.20;;
16330;SDS011;8275;48.206;16.340;2024-03-23T11:10:27;2.78;;;2.00;;
16330;SDS011;8275;48.206;16.340;2024-03-23T11:12:57;3.53;;;2.08;;
16330;SDS011;8275;48.206;16.340;2024-03-23T11:15:44;2.70;;;1.42;;
16330;SDS011;8275;48.206;16.340;2024-03-23T11:18:11;5.85;;;2.30;;
16330;SDS011;8275;48.206;16.340;2024-03-23T11:20:46;3.72;;;2.13;;
16330;SDS011;8275;48.206;16.340;2024-03-23T11:23:26;2.58;;;1.70;;
16330;SDS011;8275;48.206;16.340;2024-03-23T11:25:55;4.00;;;1.70;;
16330;SDS011;8275;48.206;16.340;2024-03-23T11:28:22;2.85;;;1.75;;
16330;SDS011;8275;48.206;16.340;2024-03-23T11:30:49;1.98;;;1.75;;
16330;SDS011;8275;48.206;16.340;2024-03-23T11:33:16;1.88;;;1.77;;
16330;SDS011;8275;48.206;16.340;2024-03-23T11:35:43;5.72;;;2.17;;
16330;SDS011;8275;48.206;16.340;2024-03-23T11:38:11;3.92;;;2.22;;
16330;SDS011;8275;48.206;16.340;2024-03-23T11:40:40;4.00;;;1.63;;
16330;SDS011;8275;48.206;16.340;2024-03-23T11:43:12;2.00;;;1.80;;
16330;SDS011;8275;48.206;16.340;2024-03-23T11:45:40;4.30;;;1.98;;
16330;SDS011;8275;48.206;16.340;2024-03-23T11:48:10;4.13;;;2.22;;
16330;SDS011;8275;48.206;16.340;2024-03-23T11:50:38;1.83;;;1.55;;
16330;SDS011;8275;48.206;16.340;2024-03-23T11:53:12;3.95;;;1.85;;
16330;SDS011;8275;48.206;16.340;2024-03-23T11:55:47;3.97;;;1.90;;
16330;SDS011;8275;48.206;16.340;2024-03-23T11:58:18;2.40;;;2.20;;
16330;SDS011;8275;48.206;16.340;2024-03-23T12:00:50;2.05;;;1.95;;
16330;SDS011;8275;48.206;16.340;2024-03-23T12:03:19;1.98;;;1.88;;
16330;SDS011;8275;48.206;16.340;2024-03-23T12:05:48;3.90;;;2.35;;
16330;SDS011;8275;48.206;16.340;2024-03-23T12:08:19;4.25;;;2.15;;
16330;SDS011;8275;48.206;16.340;2024-03-23T12:10:49;2.33;;;2.13;;
16330;SDS011;8275;48.206;16.340;2024-03-23T12:13:20;2.08;;;1.98;;
16330;SDS011;8275;48.206;16.340;2024-03-23T12:15:50;2.28;;;2.05;;
16330;SDS011;8275;48.206;16.340;2024-03-23T12:18:18;3.33;;;2.10;;
16330;SDS011;8275;48.206;16.340;2024-03-23T12:20:49;2.22;;;2.03;;
16330;SDS011;8275;48.206;16.340;2024-03-23T12:23:17;3.38;;;1.98;;
16330;SDS011;8275;48.206;16.340;2024-03-23T12:25:43;3.78;;;2.28;;
16330;SDS011;8275;48.206;16.340;2024-03-23T12:28:11;2.67;;;1.88;;
16330;SDS011;8275;48.206;16.340;2024-03-23T12:30:39;2.30;;;2.03;;
16330;SDS011;8275;48.206;16.340;2024-03-23T12:33:07;6.25;;;2.15;;
16330;SDS011;8275;48.206;16.340;2024-03-23T12:35:34;3.58;;;2.70;;
16330;SDS011;8275;48.206;16.340;2024-03-23T12:38:01;12.38;;;3.47;;
16330;SDS011;8275;48.206;16.340;2024-03-23T12:40:28;2.38;;;2.10;;
16330;SDS011;8275;48.206;16.340;2024-03-23T12:42:56;4.75;;;2.85;;
16330;SDS011;8275;48.206;16.340;2024-03-23T12:45:22;2.60;;;2.40;;
16330;SDS011;8275;48.206;16.340;2024-03-23T12:47:51;2.15;;;1.95;;
16330;SDS011;8275;48.206;16.340;2024-03-23T12:50:19;3.63;;;2.20;;
16330;SDS011;8275;48.206;16.340;2024-03-23T12:52:47;2.55;;;2.35;;
16330;SDS011;8275;48.206;16.340;2024-03-23T12:55:14;6.85;;;2.55;;
16330;SDS011;8275;48.206;16.340;2024-03-23T12:57:41;4.65;;;2.63;;
16330;SDS011;8275;48.206;16.340;2024-03-23T13:00:08;9.82;;;2.70;;
16330;SDS011;8275;48.206;16.340;2024-03-23T13:02:37;11.35;;;3.00;;
16330;SDS011;8275;48.206;16.340;2024-03-23T13:05:06;6.22;;;1.50;;
16330;SDS011;8275;48.206;16.340;2024-03-23T13:07:35;3.30;;;1.77;;
16330;SDS011;8275;48.206;16.340;2024-03-23T13:10:04;5.15;;;1.83;;
16330;SDS011;8275;48.206;16.340;2024-03-23T13:12:33;5.20;;;1.63;;
16330;SDS011;8275;48.206;16.340;2024-03-23T13:14:59;2.10;;;1.90;;
16330;SDS011;8275;48.206;16.340;2024-03-23T13:17:27;2.47;;;1.63;;
16330;SDS011;8275;48.206;16.340;2024-03-23T13:19:53;1.25;;;1.20;;
16330;SDS011;8275;48.206;16.340;2024-03-23T13:22:23;1.45;;;1.35;;
16330;SDS011;8275;48.206;16.340;2024-03-23T13:24:49;1.55;;;1.20;;
16330;SDS011;8275;48.206;16.340;2024-03-23T13:27:17;1.80;;;1.70;;
16330;SDS011;8275;48.206;16.340;2024-03-23T13:29:44;1.17;;;1.05;;
16330;SDS011;8275;48.206;16.340;2024-03-23T13:32:12;1.42;;;1.30;;
16330;SDS011;8275;48.206;16.340;2024-03-23T13:34:39;3.90;;;1.60;;
16330;SDS011;8275;48.206;16.340;2024-03-23T13:37:06;1.83;;;1.40;;
16330;SDS011;8275;48.206;16.340;2024-03-23T13:39:34;2.40;;;1.10;;
16330;SDS011;8275;48.206;16.340;2024-03-23T13:42:02;1.15;;;1.08;;
16330;SDS011;8275;48.206;16.340;2024-03-23T13:44:29;2.95;;;2.40;;
16330;SDS011;8275;48.206;16.340;2024-03-23T13:46:56;1.15;;;1.05;;
16330;SDS011;8275;48.206;16.340;2024-03-23T13:49:27;2.22;;;1.33;;
16330;SDS011;8275;48.206;16.340;2024-03-23T13:51:56;1.17;;;1.08;;
16330;SDS011;8275;48.206;16.340;2024-03-23T13:54:23;3.38;;;1.08;;
16330;SDS011;8275;48.206;16.340;2024-03-23T13:56:53;1.67;;;1.52;;
16330;SDS011;8275;48.206;16.340;2024-03-23T13:59:21;3.50;;;1.27;;
16330;SDS011;8275;48.206;16.340;2024-03-23T14:01:49;1.52;;;1.20;;
16330;SDS011;8275;48.206;16.340;2024-03-23T14:04:16;1.30;;;1.20;;
16330;SDS011;8275;48.206;16.340;2024-03-23T14:06:44;2.05;;;0.98;;
16330;SDS011;8275;48.206;16.340;2024-03-23T14:09:11;1.33;;;1.20;;
16330;SDS011;8275;48.206;16.340;2024-03-23T14:11:39;1.60;;;1.15;;
16330;SDS011;8275;48.206;16.340;2024-03-23T14:14:08;1.02;;;0.93;;
16330;SDS011;8275;48.206;16.340;2024-03-23T14:16:35;3.45;;;1.42;;
16330;SDS011;8275;48.206;16.340;2024-03-23T14:19:02;2.90;;;1.50;;
16330;SDS011;8275;48.206;16.340;2024-03-23T14:21:31;3.85;;;1.30;;
16330;SDS011;8275;48.206;16.340;2024-03-23T14:23:57;1.98;;;1.48;;
16330;SDS011;8275;48.206;16.340;2024-03-23T14:26:26;1.02;;;1.00;;
16330;SDS011;8275;48.206;16.340;2024-03-23T14:28:52;1.15;;;1.05;;
16330;SDS011;8275;48.206;16.340;2024-03-23T14:31:21;1.77;;;1.20;;
16330;SDS011;8275;48.206;16.340;2024-03-23T14:33:49;2.88;;;2.00;;
16330;SDS011;8275;48.206;16.340;2024-03-23T14:36:16;2.58;;;1.55;;
16330;SDS011;8275;48.206;16.340;2024-03-23T14:38:46;1.90;;;1.27;;
16330;SDS011;8275;48.206;16.340;2024-03-23T14:41:14;1.65;;;1.55;;
16330;SDS011;8275;48.206;16.340;2024-03-23T14:43:41;2.28;;;2.08;;
16330;SDS011;8275;48.206;16.340;2024-03-23T14:46:09;1.80;;;1.70;;
16330;SDS011;8275;48.206;16.340;2024-03-23T14:48:40;2.55;;;2.35;;
16330;SDS011;8275;48.206;16.340;2024-03-23T14:51:08;2.83;;;1.92;;
16330;SDS011;8275;48.206;16.340;2024-03-23T14:53:36;1.67;;;1.55;;
16330;SDS011;8275;48.206;16.340;2024-03-23T14:56:05;1.70;;;1.60;;
16330;SDS011;8275;48.206;16.340;2024-03-23T14:58:32;5.20;;;1.52;;
16330;SDS011;8275;48.206;16.340;2024-03-23T15:01:01;1.50;;;1.40;;
16330;SDS011;8275;48.206;16.340;2024-03-23T15:03:27;2.05;;;1.77;;
16330;SDS011;8275;48.206;16.340;2024-03-23T15:05:57;1.40;;;1.30;;
16330;SDS011;8275;48.206;16.340;2024-03-23T15:08:25;2.60;;;1.70;;
16330;SDS011;8275;48.206;16.340;2024-03-23T15:10:53;1.90;;;1.70;;
16330;SDS011;8275;48.206;16.340;2024-03-23T15:13:20;1.50;;;1.40;;
16330;SDS011;8275;48.206;16.340;2024-03-23T15:15:48;2.35;;;1.95;;
16330;SDS011;8275;48.206;16.340;2024-03-23T15:18:15;2.10;;;1.80;;
16330;SDS011;8275;48.206;16.340;2024-03-23T15:20:53;2.55;;;2.35;;
16330;SDS011;8275;48.206;16.340;2024-03-23T15:23:22;1.85;;;1.70;;
16330;SDS011;8275;48.206;16.340;2024-03-23T15:25:53;1.52;;;1.42;;
16330;SDS011;8275;48.206;16.340;2024-03-23T15:28:20;1.42;;;1.33;;
16330;SDS011;8275;48.206;16.340;2024-03-23T15:30:48;2.08;;;1.88;;
16330;SDS011;8275;48.206;16.340;2024-03-23T15:33:14;2.15;;;1.70;;
16330;SDS011;8275;48.206;16.340;2024-03-23T15:35:42;1.80;;;1.70;;
16330;SDS011;8275;48.206;16.340;2024-03-23T15:38:08;7.53;;;3.13;;
16330;SDS011;8275;48.206;16.340;2024-03-23T15:40:37;5.43;;;2.67;;
16330;SDS011;8275;48.206;16.340;2024-03-23T15:43:04;2.80;;;1.55;;
16330;SDS011;8275;48.206;16.340;2024-03-23T15:45:31;3.00;;;2.75;;